Kingston, Tennessee
Current Conditions -  °F | °C
As of 1:53 PM on Tuesday 21 Oct 2014 (Local Time) from KOQT Reporting Station
Broken Clouds Broken Clouds  
Wind Chill: 69°   Ceiling: 5500
Heat Index: 69°   Visibility: 10mi
Dew Point: 43°   Wind: 0mph
Humidity: 39%   Direction: NA
Pressure: 30.02"   Gusts: NA
Location:  35.88°N, 84.51°W
Report Text: KOQT 211753Z AUTO 00000KT 10SM BKN055 21/06 A3002 RMK AO2 SLP161 T02060061 10206 20089 58009
Loading
Personal Weather Stations






























Interactive Weather Map
Tropical Storm Tracking
New forecast layout! Learn more

10-Day Weather Forecast

Advertisements
Track Severe Weather on mobile